sensor_id;sensor_type;location;lat;lon;timestamp;temperature;humidity
21353;DHT22;10834;52.268;6.770;2023-12-04T00:01:52;1.00;99.90
21353;DHT22;10834;52.268;6.770;2023-12-04T00:04:36;1.00;99.90
21353;DHT22;10834;52.268;6.770;2023-12-04T00:07:20;1.00;99.90
21353;DHT22;10834;52.268;6.770;2023-12-04T00:10:04;1.00;99.90
21353;DHT22;10834;52.268;6.770;2023-12-04T00:12:49;1.10;99.90
21353;DHT22;10834;52.268;6.770;2023-12-04T00:15:33;1.10;99.90
21353;DHT22;10834;52.268;6.770;2023-12-04T00:18:17;1.00;99.90
21353;DHT22;10834;52.268;6.770;2023-12-04T00:21:01;1.10;99.90
21353;DHT22;10834;52.268;6.770;2023-12-04T00:23:45;1.10;99.90
21353;DHT22;10834;52.268;6.770;2023-12-04T00:26:30;1.10;99.90
21353;DHT22;10834;52.268;6.770;2023-12-04T00:29:14;1.10;99.90
21353;DHT22;10834;52.268;6.770;2023-12-04T00:31:58;1.10;99.90
21353;DHT22;10834;52.268;6.770;2023-12-04T00:34:42;1.10;99.90
21353;DHT22;10834;52.268;6.770;2023-12-04T00:37:26;1.10;99.90
21353;DHT22;10834;52.268;6.770;2023-12-04T00:40:11;1.10;99.90
21353;DHT22;10834;52.268;6.770;2023-12-04T00:42:55;1.10;99.90
21353;DHT22;10834;52.268;6.770;2023-12-04T00:45:39;1.10;99.90
21353;DHT22;10834;52.268;6.770;2023-12-04T00:48:23;1.20;99.90
21353;DHT22;10834;52.268;6.770;2023-12-04T00:51:08;1.10;99.90
21353;DHT22;10834;52.268;6.770;2023-12-04T00:53:53;1.20;99.90
21353;DHT22;10834;52.268;6.770;2023-12-04T00:56:40;1.20;99.90
21353;DHT22;10834;52.268;6.770;2023-12-04T00:59:24;1.20;99.90
21353;DHT22;10834;52.268;6.770;2023-12-04T01:02:08;1.20;99.90
21353;DHT22;10834;52.268;6.770;2023-12-04T01:04:52;1.20;99.90
21353;DHT22;10834;52.268;6.770;2023-12-04T01:07:36;1.20;99.90
21353;DHT22;10834;52.268;6.770;2023-12-04T01:10:20;1.30;99.90
21353;DHT22;10834;52.268;6.770;2023-12-04T01:13:05;1.20;99.90
21353;DHT22;10834;52.268;6.770;2023-12-04T01:15:49;1.30;99.90
21353;DHT22;10834;52.268;6.770;2023-12-04T01:18:35;1.20;99.90
21353;DHT22;10834;52.268;6.770;2023-12-04T01:21:19;1.40;99.90
21353;DHT22;10834;52.268;6.770;2023-12-04T01:24:03;1.20;99.90
21353;DHT22;10834;52.268;6.770;2023-12-04T01:26:48;1.30;99.90
21353;DHT22;10834;52.268;6.770;2023-12-04T01:29:32;1.20;99.90
21353;DHT22;10834;52.268;6.770;2023-12-04T01:32:16;1.30;99.90
21353;DHT22;10834;52.268;6.770;2023-12-04T01:35:01;1.20;99.90
21353;DHT22;10834;52.268;6.770;2023-12-04T01:37:46;1.30;99.90
21353;DHT22;10834;52.268;6.770;2023-12-04T01:40:30;1.40;99.90
21353;DHT22;10834;52.268;6.770;2023-12-04T01:43:14;1.30;99.90
21353;DHT22;10834;52.268;6.770;2023-12-04T01:46:00;1.30;99.90
21353;DHT22;10834;52.268;6.770;2023-12-04T01:48:45;1.30;99.90
21353;DHT22;10834;52.268;6.770;2023-12-04T01:51:31;1.30;99.90
21353;DHT22;10834;52.268;6.770;2023-12-04T01:54:16;1.30;99.90
21353;DHT22;10834;52.268;6.770;2023-12-04T01:57:02;1.40;99.90
21353;DHT22;10834;52.268;6.770;2023-12-04T01:59:47;1.30;99.90
21353;DHT22;10834;52.268;6.770;2023-12-04T02:02:31;1.30;99.90
21353;DHT22;10834;52.268;6.770;2023-12-04T02:05:16;1.30;99.90
21353;DHT22;10834;52.268;6.770;2023-12-04T02:08:01;1.30;99.90
21353;DHT22;10834;52.268;6.770;2023-12-04T02:10:46;1.30;99.90
21353;DHT22;10834;52.268;6.770;2023-12-04T02:13:30;1.30;99.90
21353;DHT22;10834;52.268;6.770;2023-12-04T02:16:16;1.30;99.90
21353;DHT22;10834;52.268;6.770;2023-12-04T02:19:03;1.30;99.90
21353;DHT22;10834;52.268;6.770;2023-12-04T02:21:47;1.30;99.90
21353;DHT22;10834;52.268;6.770;2023-12-04T02:24:32;1.40;99.90
21353;DHT22;10834;52.268;6.770;2023-12-04T02:27:22;1.30;99.90
21353;DHT22;10834;52.268;6.770;2023-12-04T02:30:12;1.40;99.90
21353;DHT22;10834;52.268;6.770;2023-12-04T02:32:58;1.30;99.90
21353;DHT22;10834;52.268;6.770;2023-12-04T02:35:44;1.30;99.90
21353;DHT22;10834;52.268;6.770;2023-12-04T02:38:28;1.30;99.90
21353;DHT22;10834;52.268;6.770;2023-12-04T02:41:13;1.30;99.90
21353;DHT22;10834;52.268;6.770;2023-12-04T02:43:58;1.30;99.90
21353;DHT22;10834;52.268;6.770;2023-12-04T02:46:43;1.30;99.90
21353;DHT22;10834;52.268;6.770;2023-12-04T02:49:27;1.20;99.90
21353;DHT22;10834;52.268;6.770;2023-12-04T02:52:11;1.20;99.90
21353;DHT22;10834;52.268;6.770;2023-12-04T02:54:55;1.20;99.90
21353;DHT22;10834;52.268;6.770;2023-12-04T02:57:39;1.20;99.90
21353;DHT22;10834;52.268;6.770;2023-12-04T03:00:23;1.20;99.90
21353;DHT22;10834;52.268;6.770;2023-12-04T03:03:08;1.20;99.90
21353;DHT22;10834;52.268;6.770;2023-12-04T03:05:52;1.30;99.90
21353;DHT22;10834;52.268;6.770;2023-12-04T03:08:36;1.20;99.90
21353;DHT22;10834;52.268;6.770;2023-12-04T03:11:20;1.20;99.90
21353;DHT22;10834;52.268;6.770;2023-12-04T03:14:04;1.30;99.90
21353;DHT22;10834;52.268;6.770;2023-12-04T03:16:49;1.20;99.90
21353;DHT22;10834;52.268;6.770;2023-12-04T03:19:34;1.30;99.90
21353;DHT22;10834;52.268;6.770;2023-12-04T03:22:18;1.30;99.90
21353;DHT22;10834;52.268;6.770;2023-12-04T03:25:02;1.20;99.90
21353;DHT22;10834;52.268;6.770;2023-12-04T03:27:47;1.20;99.90
21353;DHT22;10834;52.268;6.770;2023-12-04T03:30:31;1.20;99.90
21353;DHT22;10834;52.268;6.770;2023-12-04T03:33:15;1.30;99.90
21353;DHT22;10834;52.268;6.770;2023-12-04T03:36:00;1.20;99.90
21353;DHT22;10834;52.268;6.770;2023-12-04T03:38:44;1.30;99.90
21353;DHT22;10834;52.268;6.770;2023-12-04T03:41:28;1.30;99.90
21353;DHT22;10834;52.268;6.770;2023-12-04T03:44:12;1.30;99.90
21353;DHT22;10834;52.268;6.770;2023-12-04T03:46:56;1.30;99.90
21353;DHT22;10834;52.268;6.770;2023-12-04T03:49:40;1.20;99.90
21353;DHT22;10834;52.268;6.770;2023-12-04T03:52:25;1.30;99.90
21353;DHT22;10834;52.268;6.770;2023-12-04T03:55:09;1.30;99.90
21353;DHT22;10834;52.268;6.770;2023-12-04T03:57:54;1.30;99.90
21353;DHT22;10834;52.268;6.770;2023-12-04T04:00:38;1.20;99.90
21353;DHT22;10834;52.268;6.770;2023-12-04T04:03:25;1.20;99.90
21353;DHT22;10834;52.268;6.770;2023-12-04T04:06:09;1.30;99.90
21353;DHT22;10834;52.268;6.770;2023-12-04T04:08:53;1.20;99.90
21353;DHT22;10834;52.268;6.770;2023-12-04T04:11:37;1.20;99.90
21353;DHT22;10834;52.268;6.770;2023-12-04T04:14:22;1.20;99.90
21353;DHT22;10834;52.268;6.770;2023-12-04T04:17:07;1.20;99.90
21353;DHT22;10834;52.268;6.770;2023-12-04T04:19:53;1.20;99.90
21353;DHT22;10834;52.268;6.770;2023-12-04T04:22:38;1.20;99.90
21353;DHT22;10834;52.268;6.770;2023-12-04T04:25:24;1.20;99.90
21353;DHT22;10834;52.268;6.770;2023-12-04T04:28:08;1.20;99.90
21353;DHT22;10834;52.268;6.770;2023-12-04T04:30:52;1.20;99.90
21353;DHT22;10834;52.268;6.770;2023-12-04T04:33:37;1.30;99.90
21353;DHT22;10834;52.268;6.770;2023-12-04T04:36:21;1.20;99.90
21353;DHT22;10834;52.268;6.770;2023-12-04T04:39:05;1.30;99.90
21353;DHT22;10834;52.268;6.770;2023-12-04T04:41:50;1.20;99.90
21353;DHT22;10834;52.268;6.770;2023-12-04T04:44:34;1.20;99.90
21353;DHT22;10834;52.268;6.770;2023-12-04T04:47:18;1.20;99.90
21353;DHT22;10834;52.268;6.770;2023-12-04T04:50:03;1.20;99.90
21353;DHT22;10834;52.268;6.770;2023-12-04T04:52:47;1.20;99.90
21353;DHT22;10834;52.268;6.770;2023-12-04T04:55:31;1.20;99.90
21353;DHT22;10834;52.268;6.770;2023-12-04T04:58:16;1.30;99.90
21353;DHT22;10834;52.268;6.770;2023-12-04T05:01:01;1.20;99.90
21353;DHT22;10834;52.268;6.770;2023-12-04T05:03:45;1.20;99.90
21353;DHT22;10834;52.268;6.770;2023-12-04T05:06:29;1.10;99.90
21353;DHT22;10834;52.268;6.770;2023-12-04T05:09:13;1.10;99.90
21353;DHT22;10834;52.268;6.770;2023-12-04T05:11:57;1.10;99.90
21353;DHT22;10834;52.268;6.770;2023-12-04T05:14:42;1.10;99.90
21353;DHT22;10834;52.268;6.770;2023-12-04T05:17:26;1.20;99.90
21353;DHT22;10834;52.268;6.770;2023-12-04T05:20:10;1.10;99.90
21353;DHT22;10834;52.268;6.770;2023-12-04T05:22:55;1.10;99.90
21353;DHT22;10834;52.268;6.770;2023-12-04T05:25:40;1.10;99.90
21353;DHT22;10834;52.268;6.770;2023-12-04T05:28:24;1.10;99.90
21353;DHT22;10834;52.268;6.770;2023-12-04T05:31:08;1.10;99.90
21353;DHT22;10834;52.268;6.770;2023-12-04T05:33:52;1.10;99.90
21353;DHT22;10834;52.268;6.770;2023-12-04T05:36:37;1.10;99.90
21353;DHT22;10834;52.268;6.770;2023-12-04T05:39:21;1.00;99.90
21353;DHT22;10834;52.268;6.770;2023-12-04T05:42:05;1.10;99.90
21353;DHT22;10834;52.268;6.770;2023-12-04T05:44:49;1.10;99.90
21353;DHT22;10834;52.268;6.770;2023-12-04T05:47:33;1.00;99.90
21353;DHT22;10834;52.268;6.770;2023-12-04T05:50:18;1.00;99.90
21353;DHT22;10834;52.268;6.770;2023-12-04T05:53:02;1.00;99.90
21353;DHT22;10834;52.268;6.770;2023-12-04T05:55:46;1.00;99.90
21353;DHT22;10834;52.268;6.770;2023-12-04T05:58:31;1.00;99.90
21353;DHT22;10834;52.268;6.770;2023-12-04T06:01:15;1.00;99.90
21353;DHT22;10834;52.268;6.770;2023-12-04T06:04:00;1.00;99.90
21353;DHT22;10834;52.268;6.770;2023-12-04T06:06:44;1.00;99.90
21353;DHT22;10834;52.268;6.770;2023-12-04T06:09:28;0.90;99.90
21353;DHT22;10834;52.268;6.770;2023-12-04T06:12:12;1.00;99.90
21353;DHT22;10834;52.268;6.770;2023-12-04T06:14:56;1.00;99.90
21353;DHT22;10834;52.268;6.770;2023-12-04T06:17:42;1.10;99.90
21353;DHT22;10834;52.268;6.770;2023-12-04T06:20:26;1.00;99.90
21353;DHT22;10834;52.268;6.770;2023-12-04T06:23:10;1.00;99.90
21353;DHT22;10834;52.268;6.770;2023-12-04T06:25:55;1.00;99.90
21353;DHT22;10834;52.268;6.770;2023-12-04T06:28:39;1.00;99.90
21353;DHT22;10834;52.268;6.770;2023-12-04T06:31:24;1.00;99.90
21353;DHT22;10834;52.268;6.770;2023-12-04T06:34:08;1.00;99.90
21353;DHT22;10834;52.268;6.770;2023-12-04T06:36:54;1.00;99.90
21353;DHT22;10834;52.268;6.770;2023-12-04T06:39:40;1.00;99.90
21353;DHT22;10834;52.268;6.770;2023-12-04T06:42:24;1.10;99.90
21353;DHT22;10834;52.268;6.770;2023-12-04T06:45:09;1.10;99.90
21353;DHT22;10834;52.268;6.770;2023-12-04T06:47:54;1.10;99.90
21353;DHT22;10834;52.268;6.770;2023-12-04T06:50:39;1.10;99.90
21353;DHT22;10834;52.268;6.770;2023-12-04T06:53:24;1.10;99.90
21353;DHT22;10834;52.268;6.770;2023-12-04T06:56:08;1.20;99.90
21353;DHT22;10834;52.268;6.770;2023-12-04T06:58:53;1.20;99.90
21353;DHT22;10834;52.268;6.770;2023-12-04T07:01:38;1.20;99.90
21353;DHT22;10834;52.268;6.770;2023-12-04T07:04:22;1.20;99.90
21353;DHT22;10834;52.268;6.770;2023-12-04T07:07:06;1.20;99.90
21353;DHT22;10834;52.268;6.770;2023-12-04T07:09:51;1.20;99.90
21353;DHT22;10834;52.268;6.770;2023-12-04T07:12:35;1.20;99.90
21353;DHT22;10834;52.268;6.770;2023-12-04T07:15:19;1.30;99.90
21353;DHT22;10834;52.268;6.770;2023-12-04T07:18:03;1.30;99.90
21353;DHT22;10834;52.268;6.770;2023-12-04T07:20:48;1.30;99.90
21353;DHT22;10834;52.268;6.770;2023-12-04T07:23:32;1.40;99.90
21353;DHT22;10834;52.268;6.770;2023-12-04T07:26:16;1.30;99.90
21353;DHT22;10834;52.268;6.770;2023-12-04T07:29:00;1.30;99.90
21353;DHT22;10834;52.268;6.770;2023-12-04T07:31:45;1.40;99.90
21353;DHT22;10834;52.268;6.770;2023-12-04T07:34:29;1.40;99.90
21353;DHT22;10834;52.268;6.770;2023-12-04T07:37:13;1.40;99.90
21353;DHT22;10834;52.268;6.770;2023-12-04T07:39:57;1.40;99.90
21353;DHT22;10834;52.268;6.770;2023-12-04T07:42:42;1.50;99.90
21353;DHT22;10834;52.268;6.770;2023-12-04T07:45:26;1.50;99.90
21353;DHT22;10834;52.268;6.770;2023-12-04T07:48:11;1.50;99.90
21353;DHT22;10834;52.268;6.770;2023-12-04T07:50:55;1.50;99.90
21353;DHT22;10834;52.268;6.770;2023-12-04T07:53:39;1.60;99.90
21353;DHT22;10834;52.268;6.770;2023-12-04T07:56:24;1.60;99.90
21353;DHT22;10834;52.268;6.770;2023-12-04T07:59:08;1.60;99.90
21353;DHT22;10834;52.268;6.770;2023-12-04T08:01:53;1.70;99.90
21353;DHT22;10834;52.268;6.770;2023-12-04T08:04:38;1.70;99.90
21353;DHT22;10834;52.268;6.770;2023-12-04T08:07:22;1.80;99.90
21353;DHT22;10834;52.268;6.770;2023-12-04T08:10:07;1.80;99.90
21353;DHT22;10834;52.268;6.770;2023-12-04T08:12:51;1.90;99.90
21353;DHT22;10834;52.268;6.770;2023-12-04T08:15:35;1.90;99.90
21353;DHT22;10834;52.268;6.770;2023-12-04T08:18:19;1.90;99.90
21353;DHT22;10834;52.268;6.770;2023-12-04T08:21:03;1.90;99.90
21353;DHT22;10834;52.268;6.770;2023-12-04T08:23:48;2.00;99.90
21353;DHT22;10834;52.268;6.770;2023-12-04T08:26:32;2.10;99.90
21353;DHT22;10834;52.268;6.770;2023-12-04T08:29:16;2.10;99.90
21353;DHT22;10834;52.268;6.770;2023-12-04T08:32:01;2.10;99.90
21353;DHT22;10834;52.268;6.770;2023-12-04T08:34:45;2.10;99.90
21353;DHT22;10834;52.268;6.770;2023-12-04T08:37:29;2.10;99.90
21353;DHT22;10834;52.268;6.770;2023-12-04T08:40:14;2.10;99.90
21353;DHT22;10834;52.268;6.770;2023-12-04T08:42:58;2.20;99.90
21353;DHT22;10834;52.268;6.770;2023-12-04T08:45:43;2.20;99.90
21353;DHT22;10834;52.268;6.770;2023-12-04T08:48:27;2.30;99.90
21353;DHT22;10834;52.268;6.770;2023-12-04T08:51:17;2.30;99.90
21353;DHT22;10834;52.268;6.770;2023-12-04T08:54:02;2.40;99.90
21353;DHT22;10834;52.268;6.770;2023-12-04T08:56:46;2.40;99.90
21353;DHT22;10834;52.268;6.770;2023-12-04T08:59:31;2.50;99.90
21353;DHT22;10834;52.268;6.770;2023-12-04T09:02:15;2.50;99.90
21353;DHT22;10834;52.268;6.770;2023-12-04T09:04:59;2.60;99.90
21353;DHT22;10834;52.268;6.770;2023-12-04T09:07:43;2.60;99.90
21353;DHT22;10834;52.268;6.770;2023-12-04T09:10:27;2.60;99.90
21353;DHT22;10834;52.268;6.770;2023-12-04T09:13:11;2.70;99.90
21353;DHT22;10834;52.268;6.770;2023-12-04T09:15:55;2.70;99.90
21353;DHT22;10834;52.268;6.770;2023-12-04T09:18:39;2.70;99.90
21353;DHT22;10834;52.268;6.770;2023-12-04T09:21:24;2.70;99.90
21353;DHT22;10834;52.268;6.770;2023-12-04T09:24:08;2.80;99.90
21353;DHT22;10834;52.268;6.770;2023-12-04T09:26:53;2.80;99.90
21353;DHT22;10834;52.268;6.770;2023-12-04T09:29:37;2.90;99.90
21353;DHT22;10834;52.268;6.770;2023-12-04T09:32:21;2.90;99.90
21353;DHT22;10834;52.268;6.770;2023-12-04T09:35:06;2.90;99.90
21353;DHT22;10834;52.268;6.770;2023-12-04T09:37:50;3.00;99.90
21353;DHT22;10834;52.268;6.770;2023-12-04T09:40:34;3.00;99.90
21353;DHT22;10834;52.268;6.770;2023-12-04T09:43:19;3.00;99.90
21353;DHT22;10834;52.268;6.770;2023-12-04T09:46:03;3.00;99.90
21353;DHT22;10834;52.268;6.770;2023-12-04T09:48:48;3.00;99.90
21353;DHT22;10834;52.268;6.770;2023-12-04T09:51:37;3.10;99.90
21353;DHT22;10834;52.268;6.770;2023-12-04T09:54:21;3.10;99.90
21353;DHT22;10834;52.268;6.770;2023-12-04T09:57:06;3.10;99.90
21353;DHT22;10834;52.268;6.770;2023-12-04T09:59:51;3.20;99.90
21353;DHT22;10834;52.268;6.770;2023-12-04T10:02:36;3.20;99.90
21353;DHT22;10834;52.268;6.770;2023-12-04T10:05:20;3.20;99.90
21353;DHT22;10834;52.268;6.770;2023-12-04T10:08:05;3.20;99.90
21353;DHT22;10834;52.268;6.770;2023-12-04T10:10:49;3.30;99.90
21353;DHT22;10834;52.268;6.770;2023-12-04T10:13:33;3.20;99.90
21353;DHT22;10834;52.268;6.770;2023-12-04T10:16:37;3.20;99.90
21353;DHT22;10834;52.268;6.770;2023-12-04T10:19:22;3.30;99.90
21353;DHT22;10834;52.268;6.770;2023-12-04T10:22:08;3.30;99.90
21353;DHT22;10834;52.268;6.770;2023-12-04T10:24:55;3.30;99.90
21353;DHT22;10834;52.268;6.770;2023-12-04T10:27:39;3.40;99.90
21353;DHT22;10834;52.268;6.770;2023-12-04T10:30:28;3.50;99.90
21353;DHT22;10834;52.268;6.770;2023-12-04T10:33:12;3.40;99.90
21353;DHT22;10834;52.268;6.770;2023-12-04T10:35:58;3.50;99.90
21353;DHT22;10834;52.268;6.770;2023-12-04T10:38:42;3.50;99.90
21353;DHT22;10834;52.268;6.770;2023-12-04T10:41:26;3.70;99.90
21353;DHT22;10834;52.268;6.770;2023-12-04T10:44:16;3.70;99.90
21353;DHT22;10834;52.268;6.770;2023-12-04T10:47:01;3.80;99.90
21353;DHT22;10834;52.268;6.770;2023-12-04T10:49:51;3.80;99.90
21353;DHT22;10834;52.268;6.770;2023-12-04T10:52:36;3.90;99.90
21353;DHT22;10834;52.268;6.770;2023-12-04T10:55:24;3.90;99.90
21353;DHT22;10834;52.268;6.770;2023-12-04T10:58:11;3.90;99.90
21353;DHT22;10834;52.268;6.770;2023-12-04T11:00:56;3.90;99.90
21353;DHT22;10834;52.268;6.770;2023-12-04T11:03:48;4.00;99.90
21353;DHT22;10834;52.268;6.770;2023-12-04T11:06:35;4.00;99.90
21353;DHT22;10834;52.268;6.770;2023-12-04T11:09:22;4.10;99.90
21353;DHT22;10834;52.268;6.770;2023-12-04T11:12:14;4.20;99.90
21353;DHT22;10834;52.268;6.770;2023-12-04T11:15:02;4.20;99.90
21353;DHT22;10834;52.268;6.770;2023-12-04T11:17:53;4.20;99.90
21353;DHT22;10834;52.268;6.770;2023-12-04T11:20:48;4.20;99.90
21353;DHT22;10834;52.268;6.770;2023-12-04T11:23:35;4.10;99.90
21353;DHT22;10834;52.268;6.770;2023-12-04T11:26:20;4.10;99.90
21353;DHT22;10834;52.268;6.770;2023-12-04T11:29:06;4.10;99.90
21353;DHT22;10834;52.268;6.770;2023-12-04T11:31:52;4.00;99.90
21353;DHT22;10834;52.268;6.770;2023-12-04T11:34:36;4.00;99.90
21353;DHT22;10834;52.268;6.770;2023-12-04T11:37:21;4.00;99.90
21353;DHT22;10834;52.268;6.770;2023-12-04T11:40:08;4.00;99.90
21353;DHT22;10834;52.268;6.770;2023-12-04T11:42:54;4.00;99.90
21353;DHT22;10834;52.268;6.770;2023-12-04T11:45:40;4.00;99.90
21353;DHT22;10834;52.268;6.770;2023-12-04T11:48:24;4.00;99.90
21353;DHT22;10834;52.268;6.770;2023-12-04T11:51:08;4.00;99.90
21353;DHT22;10834;52.268;6.770;2023-12-04T11:53:52;4.00;99.90
21353;DHT22;10834;52.268;6.770;2023-12-04T11:56:38;4.00;99.90
21353;DHT22;10834;52.268;6.770;2023-12-04T11:59:23;4.00;99.90
21353;DHT22;10834;52.268;6.770;2023-12-04T12:02:08;4.00;99.90
21353;DHT22;10834;52.268;6.770;2023-12-04T12:04:54;4.00;99.90
21353;DHT22;10834;52.268;6.770;2023-12-04T12:07:38;4.00;99.90
21353;DHT22;10834;52.268;6.770;2023-12-04T12:10:22;4.10;99.90
21353;DHT22;10834;52.268;6.770;2023-12-04T12:13:07;4.10;99.90
21353;DHT22;10834;52.268;6.770;2023-12-04T12:15:52;4.20;99.90
21353;DHT22;10834;52.268;6.770;2023-12-04T12:18:36;4.30;99.90
21353;DHT22;10834;52.268;6.770;2023-12-04T12:21:21;4.40;99.90
21353;DHT22;10834;52.268;6.770;2023-12-04T12:24:06;4.40;99.90
21353;DHT22;10834;52.268;6.770;2023-12-04T12:26:50;4.50;99.90
21353;DHT22;10834;52.268;6.770;2023-12-04T12:29:35;4.60;99.90
21353;DHT22;10834;52.268;6.770;2023-12-04T12:32:19;4.50;99.90
21353;DHT22;10834;52.268;6.770;2023-12-04T12:35:04;4.60;99.90
21353;DHT22;10834;52.268;6.770;2023-12-04T12:37:49;4.60;99.90
21353;DHT22;10834;52.268;6.770;2023-12-04T12:40:37;4.70;99.90
21353;DHT22;10834;52.268;6.770;2023-12-04T12:43:21;4.70;99.90
21353;DHT22;10834;52.268;6.770;2023-12-04T12:46:07;4.60;99.90
21353;DHT22;10834;52.268;6.770;2023-12-04T12:48:52;4.70;99.90
21353;DHT22;10834;52.268;6.770;2023-12-04T12:51:36;4.60;99.90
21353;DHT22;10834;52.268;6.770;2023-12-04T12:54:23;4.60;99.90
21353;DHT22;10834;52.268;6.770;2023-12-04T12:57:08;4.50;99.90
21353;DHT22;10834;52.268;6.770;2023-12-04T12:59:54;4.50;99.90
21353;DHT22;10834;52.268;6.770;2023-12-04T13:02:38;4.40;99.90
21353;DHT22;10834;52.268;6.770;2023-12-04T13:05:22;4.40;99.90
21353;DHT22;10834;52.268;6.770;2023-12-04T13:08:06;4.40;99.90
21353;DHT22;10834;52.268;6.770;2023-12-04T13:10:50;4.40;99.90
21353;DHT22;10834;52.268;6.770;2023-12-04T13:13:34;4.40;99.90
21353;DHT22;10834;52.268;6.770;2023-12-04T13:16:18;4.40;99.90
21353;DHT22;10834;52.268;6.770;2023-12-04T13:19:03;4.30;99.90
21353;DHT22;10834;52.268;6.770;2023-12-04T13:21:47;4.30;99.90
21353;DHT22;10834;52.268;6.770;2023-12-04T13:24:31;4.30;99.90
21353;DHT22;10834;52.268;6.770;2023-12-04T13:27:15;4.20;99.90
21353;DHT22;10834;52.268;6.770;2023-12-04T13:29:59;4.20;99.90
21353;DHT22;10834;52.268;6.770;2023-12-04T13:32:43;4.20;99.90
21353;DHT22;10834;52.268;6.770;2023-12-04T13:35:28;4.20;99.90
21353;DHT22;10834;52.268;6.770;2023-12-04T13:38:12;4.20;99.90
21353;DHT22;10834;52.268;6.770;2023-12-04T13:40:59;4.20;99.90
21353;DHT22;10834;52.268;6.770;2023-12-04T13:43:43;4.20;99.90
21353;DHT22;10834;52.268;6.770;2023-12-04T13:46:34;4.20;99.90
21353;DHT22;10834;52.268;6.770;2023-12-04T13:49:18;4.10;99.90
21353;DHT22;10834;52.268;6.770;2023-12-04T13:52:03;4.10;99.90
21353;DHT22;10834;52.268;6.770;2023-12-04T13:54:51;4.10;99.90
21353;DHT22;10834;52.268;6.770;2023-12-04T13:57:38;4.10;99.90
21353;DHT22;10834;52.268;6.770;2023-12-04T14:00:40;4.10;99.90
21353;DHT22;10834;52.268;6.770;2023-12-04T14:03:25;4.00;99.90
21353;DHT22;10834;52.268;6.770;2023-12-04T14:06:10;4.00;99.90
21353;DHT22;10834;52.268;6.770;2023-12-04T14:08:56;4.00;99.90
21353;DHT22;10834;52.268;6.770;2023-12-04T14:11:44;4.00;99.90
21353;DHT22;10834;52.268;6.770;2023-12-04T14:14:29;3.90;99.90
21353;DHT22;10834;52.268;6.770;2023-12-04T14:17:13;3.90;99.90
21353;DHT22;10834;52.268;6.770;2023-12-04T14:19:58;3.90;99.90
21353;DHT22;10834;52.268;6.770;2023-12-04T14:22:43;3.90;99.90
21353;DHT22;10834;52.268;6.770;2023-12-04T14:25:27;3.80;99.90
21353;DHT22;10834;52.268;6.770;2023-12-04T14:28:11;3.80;99.90
21353;DHT22;10834;52.268;6.770;2023-12-04T14:30:56;3.80;99.90
21353;DHT22;10834;52.268;6.770;2023-12-04T14:33:40;3.70;99.90
21353;DHT22;10834;52.268;6.770;2023-12-04T14:36:24;3.70;99.90
21353;DHT22;10834;52.268;6.770;2023-12-04T14:39:08;3.60;99.90
21353;DHT22;10834;52.268;6.770;2023-12-04T14:41:55;3.60;99.90
21353;DHT22;10834;52.268;6.770;2023-12-04T14:44:39;3.60;99.90
21353;DHT22;10834;52.268;6.770;2023-12-04T14:47:23;3.60;99.90
21353;DHT22;10834;52.268;6.770;2023-12-04T14:50:07;3.60;99.90
21353;DHT22;10834;52.268;6.770;2023-12-04T14:52:51;3.60;99.90
21353;DHT22;10834;52.268;6.770;2023-12-04T14:55:38;3.60;99.90
21353;DHT22;10834;52.268;6.770;2023-12-04T14:58:42;3.50;99.90
21353;DHT22;10834;52.268;6.770;2023-12-04T15:01:30;3.50;99.90
21353;DHT22;10834;52.268;6.770;2023-12-04T15:04:23;3.50;99.90
21353;DHT22;10834;52.268;6.770;2023-12-04T15:07:26;3.50;99.90
21353;DHT22;10834;52.268;6.770;2023-12-04T15:10:13;3.40;99.90
21353;DHT22;10834;52.268;6.770;2023-12-04T15:13:32;3.40;99.90
21353;DHT22;10834;52.268;6.770;2023-12-04T15:16:40;3.40;99.90
21353;DHT22;10834;52.268;6.770;2023-12-04T15:19:31;3.30;99.90
21353;DHT22;10834;52.268;6.770;2023-12-04T15:22:28;3.30;99.90
21353;DHT22;10834;52.268;6.770;2023-12-04T15:25:12;3.30;99.90
21353;DHT22;10834;52.268;6.770;2023-12-04T15:27:57;3.20;99.90
21353;DHT22;10834;52.268;6.770;2023-12-04T15:30:41;3.10;99.90
21353;DHT22;10834;52.268;6.770;2023-12-04T15:33:26;3.10;99.90
21353;DHT22;10834;52.268;6.770;2023-12-04T15:36:11;3.00;99.90
21353;DHT22;10834;52.268;6.770;2023-12-04T15:38:56;3.00;99.90
21353;DHT22;10834;52.268;6.770;2023-12-04T15:41:40;2.90;99.90
21353;DHT22;10834;52.268;6.770;2023-12-04T15:44:24;2.90;99.90
21353;DHT22;10834;52.268;6.770;2023-12-04T15:47:09;2.90;99.90
21353;DHT22;10834;52.268;6.770;2023-12-04T15:49:53;2.90;99.90
21353;DHT22;10834;52.268;6.770;2023-12-04T15:52:38;2.90;99.90
21353;DHT22;10834;52.268;6.770;2023-12-04T15:55:23;2.90;99.90
21353;DHT22;10834;52.268;6.770;2023-12-04T15:58:10;2.90;99.90
21353;DHT22;10834;52.268;6.770;2023-12-04T16:00:55;2.90;99.90
21353;DHT22;10834;52.268;6.770;2023-12-04T16:03:39;2.90;99.90
21353;DHT22;10834;52.268;6.770;2023-12-04T16:06:23;2.80;99.90
21353;DHT22;10834;52.268;6.770;2023-12-04T16:09:07;2.80;99.90
21353;DHT22;10834;52.268;6.770;2023-12-04T16:11:57;2.70;99.90
21353;DHT22;10834;52.268;6.770;2023-12-04T16:14:41;2.70;99.90
21353;DHT22;10834;52.268;6.770;2023-12-04T16:17:25;2.70;99.90
21353;DHT22;10834;52.268;6.770;2023-12-04T16:20:10;2.70;99.90
21353;DHT22;10834;52.268;6.770;2023-12-04T16:22:54;2.70;99.90
21353;DHT22;10834;52.268;6.770;2023-12-04T16:25:38;2.70;99.90
21353;DHT22;10834;52.268;6.770;2023-12-04T16:28:22;2.70;99.90
21353;DHT22;10834;52.268;6.770;2023-12-04T16:31:07;2.70;99.90
21353;DHT22;10834;52.268;6.770;2023-12-04T16:33:51;2.70;99.90
21353;DHT22;10834;52.268;6.770;2023-12-04T16:36:35;2.80;99.90
21353;DHT22;10834;52.268;6.770;2023-12-04T16:39:20;2.80;99.90
21353;DHT22;10834;52.268;6.770;2023-12-04T16:42:04;2.80;99.90
21353;DHT22;10834;52.268;6.770;2023-12-04T16:44:49;2.80;99.90
21353;DHT22;10834;52.268;6.770;2023-12-04T16:47:33;2.90;99.90
21353;DHT22;10834;52.268;6.770;2023-12-04T16:50:17;2.90;99.90
21353;DHT22;10834;52.268;6.770;2023-12-04T16:53:01;2.90;99.90
21353;DHT22;10834;52.268;6.770;2023-12-04T16:55:45;3.00;99.90
21353;DHT22;10834;52.268;6.770;2023-12-04T16:58:29;3.00;99.90
21353;DHT22;10834;52.268;6.770;2023-12-04T17:01:13;3.00;99.90
21353;DHT22;10834;52.268;6.770;2023-12-04T17:03:57;3.00;99.90
21353;DHT22;10834;52.268;6.770;2023-12-04T17:06:42;3.00;99.90
21353;DHT22;10834;52.268;6.770;2023-12-04T17:09:27;3.00;99.90
21353;DHT22;10834;52.268;6.770;2023-12-04T17:12:10;3.00;99.90
21353;DHT22;10834;52.268;6.770;2023-12-04T17:14:55;3.00;99.90
21353;DHT22;10834;52.268;6.770;2023-12-04T17:17:41;3.00;99.90
21353;DHT22;10834;52.268;6.770;2023-12-04T17:20:25;3.10;99.90
21353;DHT22;10834;52.268;6.770;2023-12-04T17:23:10;3.00;99.90
21353;DHT22;10834;52.268;6.770;2023-12-04T17:25:55;3.00;99.90
21353;DHT22;10834;52.268;6.770;2023-12-04T17:28:39;3.00;99.90
21353;DHT22;10834;52.268;6.770;2023-12-04T17:31:23;3.10;99.90
21353;DHT22;10834;52.268;6.770;2023-12-04T17:34:07;2.90;99.90
21353;DHT22;10834;52.268;6.770;2023-12-04T17:36:51;3.00;99.90
21353;DHT22;10834;52.268;6.770;2023-12-04T17:39:35;3.00;99.90